createdAt,value
2018-09-18T00:00:00.859Z,18.46
2018-09-18T00:05:04.223Z,18.38
2018-09-18T00:10:07.811Z,18.30
2018-09-18T00:15:11.131Z,18.26
2018-09-18T00:20:14.463Z,18.23
2018-09-18T00:25:17.761Z,18.14
2018-09-18T00:30:21.095Z,18.01
2018-09-18T00:35:24.387Z,18.02
2018-09-18T00:40:27.690Z,18.04
2018-09-18T00:45:31.007Z,18.08
2018-09-18T00:50:34.344Z,18.09
2018-09-18T00:55:37.626Z,18.05
2018-09-18T01:00:40.945Z,18.00
2018-09-18T01:05:44.238Z,17.99
2018-09-18T01:10:47.549Z,17.95
2018-09-18T01:15:50.883Z,17.89
2018-09-18T01:20:54.270Z,17.79
2018-09-18T01:25:57.555Z,17.66
2018-09-18T01:31:00.910Z,17.54
2018-09-18T01:36:04.413Z,17.52
2018-09-18T01:41:07.709Z,17.50
2018-09-18T01:46:11.060Z,17.45
2018-09-18T01:51:14.387Z,17.43
2018-09-18T01:56:17.771Z,17.40
2018-09-18T02:01:21.074Z,17.31
2018-09-18T02:06:24.405Z,17.34
2018-09-18T02:11:27.707Z,17.35
2018-09-18T02:16:31.018Z,17.36
2018-09-18T02:21:34.523Z,17.38
2018-09-18T02:26:37.867Z,17.31
2018-09-18T02:31:41.163Z,17.30
2018-09-18T02:36:44.530Z,17.24
2018-09-18T02:41:47.859Z,17.16
2018-09-18T02:46:51.235Z,17.14
2018-09-18T02:51:54.527Z,17.13
2018-09-18T02:56:57.831Z,17.09
2018-09-18T03:02:01.130Z,17.06
2018-09-18T03:07:04.426Z,17.05
2018-09-18T03:12:07.841Z,17.03
2018-09-18T03:17:11.160Z,17.01
2018-09-18T03:22:14.474Z,16.99
2018-09-18T03:27:17.842Z,16.95
2018-09-18T03:32:21.121Z,16.93
2018-09-18T03:37:24.429Z,16.82
2018-09-18T03:42:27.727Z,16.71
2018-09-18T03:47:31.090Z,16.69
2018-09-18T03:52:34.378Z,16.72
2018-09-18T03:57:37.710Z,16.77
2018-09-18T04:02:41.071Z,16.78
2018-09-18T04:07:44.359Z,16.76
2018-09-18T04:12:47.691Z,16.78
2018-09-18T04:17:51.036Z,16.74
2018-09-18T04:22:54.359Z,16.68
2018-09-18T04:27:57.671Z,16.66
2018-09-18T04:33:00.996Z,16.65
2018-09-18T04:38:04.382Z,16.64
2018-09-18T04:43:07.691Z,16.72
2018-09-18T04:48:10.996Z,16.71
2018-09-18T04:53:14.315Z,16.70
2018-09-18T04:58:17.612Z,16.68
2018-09-18T05:03:20.927Z,16.67
2018-09-18T05:08:24.215Z,16.70
2018-09-18T05:13:28.342Z,16.73
2018-09-18T05:18:31.651Z,16.82
2018-09-18T05:23:34.972Z,16.87
2018-09-18T05:28:38.290Z,16.92
2018-09-18T05:33:41.663Z,16.95
2018-09-18T05:38:44.969Z,17.01
2018-09-18T05:43:48.307Z,17.07
2018-09-18T05:48:51.671Z,17.14
2018-09-18T05:53:54.971Z,17.15
2018-09-18T05:58:58.278Z,17.21
2018-09-18T06:04:01.585Z,17.32
2018-09-18T06:09:07.826Z,17.49
2018-09-18T06:14:11.362Z,17.62
2018-09-18T06:19:14.766Z,17.77
2018-09-18T06:24:18.048Z,17.89
2018-09-18T06:29:21.334Z,17.99
2018-09-18T06:34:24.652Z,18.09
2018-09-18T06:39:27.967Z,18.12
2018-09-18T06:44:31.280Z,18.15
2018-09-18T06:49:34.585Z,18.21
2018-09-18T06:54:37.977Z,18.25
2018-09-18T06:59:41.261Z,18.35
2018-09-18T07:04:44.557Z,18.46
2018-09-18T07:09:47.957Z,18.58
2018-09-18T07:14:51.250Z,18.74
2018-09-18T07:19:54.564Z,18.89
2018-09-18T07:24:57.975Z,19.05
2018-09-18T07:30:01.286Z,19.17
2018-09-18T07:35:04.746Z,19.34
2018-09-18T07:40:08.142Z,19.56
2018-09-18T07:45:11.426Z,19.72
2018-09-18T07:50:14.780Z,19.91
2018-09-18T07:55:18.088Z,20.11
2018-09-18T08:00:21.428Z,20.33
2018-09-18T08:05:24.723Z,20.47
2018-09-18T08:10:28.044Z,20.64
2018-09-18T08:15:31.338Z,20.77
2018-09-18T08:20:34.662Z,20.88
2018-09-18T08:25:37.988Z,21.09
2018-09-18T08:30:41.332Z,21.20
2018-09-18T08:35:44.639Z,21.39
2018-09-18T08:40:47.974Z,21.57
2018-09-18T08:45:51.716Z,21.77
2018-09-18T08:50:55.052Z,21.93
2018-09-18T08:55:58.385Z,22.02
2018-09-18T09:01:01.715Z,22.15
2018-09-18T09:06:05.165Z,22.36
2018-09-18T09:11:08.442Z,22.55
2018-09-18T09:16:11.750Z,22.72
2018-09-18T09:21:15.155Z,22.88
2018-09-18T09:26:18.640Z,23.07
2018-09-18T09:31:21.930Z,23.28
2018-09-18T09:36:25.285Z,23.44
2018-09-18T09:41:28.623Z,23.57
2018-09-18T09:46:31.939Z,23.68
2018-09-18T09:51:35.295Z,23.79
2018-09-18T09:56:38.620Z,23.91
2018-09-18T10:01:48.131Z,24.07
2018-09-18T10:06:51.467Z,24.34
2018-09-18T10:11:54.792Z,24.44
2018-09-18T10:16:58.131Z,24.59
2018-09-18T10:22:01.466Z,24.73
2018-09-18T10:27:04.881Z,24.99
2018-09-18T10:32:08.134Z,25.19
2018-09-18T10:37:11.490Z,25.50
2018-09-18T10:42:14.872Z,25.71
2018-09-18T10:47:18.177Z,25.90
2018-09-18T10:52:21.538Z,26.10
2018-09-18T10:57:24.910Z,26.24
2018-09-18T11:02:28.238Z,26.41
2018-09-18T11:07:31.931Z,26.73
2018-09-18T11:12:35.421Z,27.30
2018-09-18T11:17:38.786Z,27.88
2018-09-18T11:22:42.108Z,36.57
2018-09-18T11:33:50.470Z,42.87
2018-09-18T11:38:53.939Z,41.90
2018-09-18T11:43:57.318Z,43.39
2018-09-18T11:49:00.614Z,45.03
2018-09-18T11:54:03.956Z,45.91
2018-09-18T11:59:07.291Z,47.19
2018-09-18T12:04:10.630Z,47.36
2018-09-18T12:09:14.035Z,46.67
2018-09-18T12:14:17.635Z,46.66
2018-09-18T12:19:20.961Z,48.23
2018-09-18T12:24:24.363Z,48.73
2018-09-18T12:29:27.710Z,49.74
2018-09-18T12:34:31.055Z,48.90
2018-09-18T12:39:34.768Z,47.79
2018-09-18T12:44:38.056Z,47.97
2018-09-18T12:49:41.487Z,48.26
2018-09-18T12:54:44.685Z,48.42
2018-09-18T12:59:48.045Z,46.82
2018-09-18T13:04:51.350Z,45.94
2018-09-18T13:09:54.684Z,45.10
2018-09-18T13:14:57.992Z,44.37
2018-09-18T13:20:01.343Z,44.50
2018-09-18T13:25:04.939Z,45.82
2018-09-18T13:30:08.675Z,43.39
2018-09-18T13:35:12.002Z,39.44
2018-09-18T13:40:15.354Z,37.98
2018-09-18T13:45:18.648Z,36.58
2018-09-18T13:50:22.077Z,35.96
2018-09-18T13:55:25.349Z,34.75
2018-09-18T14:00:28.675Z,34.27
2018-09-18T14:05:32.004Z,34.06
2018-09-18T14:10:35.386Z,33.95
2018-09-18T14:15:38.735Z,33.89
2018-09-18T14:27:02.756Z,32.77
2018-09-18T14:32:06.059Z,32.19
2018-09-18T14:37:09.443Z,31.73
2018-09-18T14:54:28.691Z,30.92
2018-09-18T14:59:32.012Z,30.80
2018-09-18T15:04:35.312Z,30.69
2018-09-18T15:09:38.743Z,30.66
2018-09-18T15:14:42.049Z,30.58
2018-09-18T15:19:45.403Z,30.50
2018-09-18T15:24:48.809Z,30.46
2018-09-18T15:29:52.122Z,30.39
2018-09-18T15:34:55.467Z,30.39
2018-09-18T15:39:58.902Z,30.37
2018-09-18T15:45:02.203Z,30.33
2018-09-18T15:50:05.899Z,30.33
2018-09-18T15:55:09.279Z,30.31
2018-09-18T16:00:12.663Z,30.24
2018-09-18T16:05:16.081Z,30.15
2018-09-18T16:10:19.429Z,30.11
2018-09-18T16:15:23.058Z,30.05
2018-09-18T16:20:26.358Z,30.02
2018-09-18T16:25:29.720Z,30.02
2018-09-18T16:30:33.020Z,30.00
2018-09-18T16:35:36.363Z,30.01
2018-09-18T16:40:39.776Z,29.95
2018-09-18T16:45:43.197Z,29.85
2018-09-18T16:50:46.554Z,29.72
2018-09-18T16:55:50.004Z,29.51
2018-09-18T17:00:53.304Z,29.22
2018-09-18T17:05:56.620Z,29.14
2018-09-18T17:10:59.982Z,28.46
2018-09-18T17:16:03.364Z,28.08
2018-09-18T17:21:06.791Z,27.82
2018-09-18T17:26:10.100Z,27.64
2018-09-18T17:31:13.548Z,27.49
2018-09-18T17:36:16.977Z,27.25
2018-09-18T17:41:20.372Z,27.05
2018-09-18T17:46:23.733Z,26.85
2018-09-18T17:51:27.158Z,26.69
2018-09-18T17:56:30.571Z,26.54
2018-09-18T18:01:33.941Z,26.37
2018-09-18T18:06:37.372Z,26.00
2018-09-18T18:11:41.115Z,25.76
2018-09-18T18:16:44.545Z,25.76
2018-09-18T18:21:47.927Z,25.71
2018-09-18T18:26:51.292Z,25.49
2018-09-18T18:31:54.864Z,25.34
2018-09-18T18:36:58.192Z,25.27
2018-09-18T18:42:01.516Z,25.18
2018-09-18T18:47:05.080Z,25.06
2018-09-18T18:52:08.435Z,25.00
2018-09-18T18:57:11.784Z,25.00
2018-09-18T19:02:15.108Z,24.93
2018-09-18T19:07:18.414Z,24.81
2018-09-18T19:12:43.149Z,24.71
2018-09-18T19:17:46.493Z,24.62
2018-09-18T19:22:49.803Z,24.41
2018-09-18T19:27:53.295Z,24.23
2018-09-18T19:32:56.748Z,24.11
2018-09-18T19:38:00.087Z,24.06
2018-09-18T19:43:03.500Z,24.03
2018-09-18T19:48:06.938Z,23.90
2018-09-18T19:53:10.256Z,23.88
2018-09-18T19:58:13.559Z,23.77
2018-09-18T20:03:16.937Z,23.63
2018-09-18T20:08:20.525Z,23.57
2018-09-18T20:13:23.900Z,23.51
2018-09-18T20:18:27.282Z,23.41
2018-09-18T20:23:30.588Z,23.36
2018-09-18T20:28:33.922Z,23.35
2018-09-18T20:33:37.334Z,23.36
2018-09-18T20:38:40.838Z,23.37
2018-09-18T20:43:44.183Z,23.44
2018-09-18T20:48:47.549Z,23.53
2018-09-18T20:53:50.862Z,23.62
2018-09-18T20:58:54.289Z,23.66
2018-09-18T21:03:57.606Z,23.65
2018-09-18T21:09:01.125Z,23.68
2018-09-18T21:14:04.426Z,23.69
2018-09-18T21:19:07.821Z,23.66
2018-09-18T21:24:11.164Z,23.60
2018-09-18T21:29:14.531Z,23.58
2018-09-18T21:34:17.879Z,23.52
2018-09-18T21:39:21.231Z,23.46
2018-09-18T21:44:24.613Z,23.46
2018-09-18T21:49:27.963Z,23.43
2018-09-18T21:54:31.292Z,23.36
2018-09-18T21:59:34.605Z,23.30
2018-09-18T22:04:37.971Z,23.26
2018-09-18T22:09:41.456Z,23.19
2018-09-18T22:14:44.858Z,23.09
2018-09-18T22:19:48.182Z,23.04
2018-09-18T22:24:51.514Z,22.92
2018-09-18T22:29:54.883Z,22.87
2018-09-18T22:34:58.242Z,22.82
2018-09-18T22:40:01.629Z,22.75
2018-09-18T22:45:05.105Z,22.71
2018-09-18T22:50:08.523Z,22.70
2018-09-18T22:55:11.958Z,22.69
2018-09-18T23:00:15.286Z,22.66
2018-09-18T23:05:18.654Z,22.59
2018-09-18T23:10:21.988Z,22.55
2018-09-18T23:15:25.329Z,22.51
2018-09-18T23:20:28.665Z,22.46
2018-09-18T23:25:32.068Z,22.37
2018-09-18T23:30:35.441Z,22.34
2018-09-18T23:35:38.759Z,22.23
2018-09-18T23:40:42.072Z,22.12
2018-09-18T23:45:45.375Z,22.02
2018-09-18T23:50:48.743Z,21.96
2018-09-18T23:55:52.175Z,21.87
